Time;durP1;ratioP1;P1;durP2;ratioP2;P2;SDS_P1;SDS_P2;PMS_P1;PMS_P2;Temp;Humidity;BMP_temperature;BMP_pressure;BME280_temperature;BME280_humidity;BME280_pressure;Samples;Min_cycle;Max_cycle;Signal;HPM_P1;HPM_P2
2023/02/01 00:01:05;;;;;;;;;;;;;;;29.97;18.03;100601.59;5077623;28;1902;-39
2023/02/01 00:03:30;;;;;;;;;;;;;;;29.96;17.82;100608.94;5077404;28;1048;-34
2023/02/01 00:05:58;;;;;;;;;;;;;;;29.92;17.94;100603.06;5077432;28;1048;-39
2023/02/01 00:08:24;;;;;;;;;;;;;;;29.93;18.05;100607.44;5077352;28;878;-36
2023/02/01 00:10:56;;;;;;;;;;;;;;;29.92;17.92;100600.34;5077161;28;993;-34
2023/02/01 00:13:22;;;;;;;;;;;;;;;30.02;17.91;100608.09;5059410;28;1238;-32
2023/02/01 00:15:47;;;;;;;;;;;;;;;29.97;18.10;100612.44;5077389;28;1051;-33
2023/02/01 00:18:13;;;;;;;;;;;;;;;30.15;17.73;100611.84;5076877;28;1103;-35
2023/02/01 00:20:38;;;;;;;;;;;;;;;30.14;17.92;100616.47;5077374;28;1968;-37
2023/02/01 00:23:03;;;;;;;;;;;;;;;30.20;17.77;100622.94;5076829;28;1048;-40
2023/02/01 00:25:29;;;;;;;;;;;;;;;30.21;17.75;100615.66;5077104;28;1122;-36
2023/02/01 00:27:56;;;;;;;;;;;;;;;30.30;17.64;100619.81;5077152;28;1523;-36
2023/02/01 00:30:21;;;;;;;;;;;;;;;30.26;17.50;100619.41;5076736;28;1055;-37
2023/02/01 00:32:47;;;;;;;;;;;;;;;30.23;17.75;100606.25;5076887;28;1119;-38
2023/02/01 00:35:12;;;;;;;;;;;;;;;28.96;18.45;100609.09;5076696;28;1373;-36
2023/02/01 00:37:37;;;;;;;;;;;;;;;28.21;19.73;100613.09;5077329;28;1131;-35
2023/02/01 00:40:03;;;;;;;;;;;;;;;29.87;18.12;100615.56;5076692;28;1882;-37
2023/02/01 00:42:28;;;;;;;;;;;;;;;30.15;17.72;100617.28;5076334;28;1079;-38
2023/02/01 00:44:54;;;;;;;;;;;;;;;30.00;17.91;100618.31;5077422;28;1150;-37
2023/02/01 00:47:19;;;;;;;;;;;;;;;29.94;18.25;100624.56;5076492;28;1439;-38
2023/02/01 00:49:45;;;;;;;;;;;;;;;29.94;18.19;100624.56;5076337;28;1142;-36
2023/02/01 00:52:10;;;;;;;;;;;;;;;29.84;18.22;100624.09;5076475;28;1118;-36
2023/02/01 00:54:37;;;;;;;;;;;;;;;29.79;18.19;100633.72;5075663;28;1111;-39
2023/02/01 00:57:02;;;;;;;;;;;;;;;29.88;18.15;100622.69;5076212;28;1167;-39
2023/02/01 00:59:27;;;;;;;;;;;;;;;29.92;18.20;100627.47;5076722;28;1135;-39
2023/02/01 01:01:53;;;;;;;;;;;;;;;29.87;18.08;100637.25;5076391;28;1980;-36
2023/02/01 01:04:18;;;;;;;;;;;;;;;29.98;18.01;100633.13;5076217;28;1099;-34
2023/02/01 01:06:43;;;;;;;;;;;;;;;30.02;18.04;100629.78;5075284;28;1213;-37
2023/02/01 01:09:09;;;;;;;;;;;;;;;29.97;18.10;100634.16;5072177;28;1048;-35
2023/02/01 01:11:37;;;;;;;;;;;;;;;29.98;18.14;100627.69;5076177;28;1107;-35
2023/02/01 01:14:02;;;;;;;;;;;;;;;30.06;17.97;100635.66;5065572;28;965;-38
2023/02/01 01:16:28;;;;;;;;;;;;;;;29.92;18.00;100632.91;5076281;28;1063;-34
2023/02/01 01:18:54;;;;;;;;;;;;;;;30.00;17.97;100625.59;5076199;28;1037;-38
2023/02/01 01:21:19;;;;;;;;;;;;;;;29.92;18.16;100624.78;5076612;28;1963;-38
2023/02/01 01:23:45;;;;;;;;;;;;;;;30.06;18.00;100622.09;5076049;28;1107;-36
2023/02/01 01:26:12;;;;;;;;;;;;;;;29.99;17.92;100626.66;5076020;28;1071;-38
2023/02/01 01:28:37;;;;;;;;;;;;;;;28.77;19.11;100628.75;5044993;28;1061;-35
2023/02/01 01:31:03;;;;;;;;;;;;;;;28.91;19.37;100627.81;5070767;28;1619;-36
2023/02/01 01:33:29;;;;;;;;;;;;;;;29.74;18.37;100619.94;5062755;28;1056;-37
2023/02/01 01:35:54;;;;;;;;;;;;;;;29.67;18.50;100627.19;5076413;28;1174;-32
2023/02/01 01:38:19;;;;;;;;;;;;;;;29.93;18.22;100618.28;5075021;28;1314;-39
2023/02/01 01:40:45;;;;;;;;;;;;;;;29.95;18.03;100615.38;5076126;28;1948;-36
2023/02/01 01:43:14;;;;;;;;;;;;;;;30.14;18.06;100618.31;5072983;28;1072;-35
2023/02/01 01:45:39;;;;;;;;;;;;;;;29.91;18.26;100616.84;5073141;28;944;-36
2023/02/01 01:48:05;;;;;;;;;;;;;;;30.08;17.91;100608.31;5075714;28;1039;-36
2023/02/01 01:50:57;;;;;;;;;;;;;;;30.23;18.04;100613.56;5057998;28;1127;-35
2023/02/01 01:53:31;;;;;;;;;;;;;;;30.12;18.00;100615.81;5071921;28;1643;-36
2023/02/01 01:55:56;;;;;;;;;;;;;;;29.98;18.01;100627.69;5071913;28;1106;-37
2023/02/01 01:58:23;;;;;;;;;;;;;;;28.73;19.50;100617.47;5075888;28;1107;-35
2023/02/01 02:00:48;;;;;;;;;;;;;;;28.71;19.46;100627.69;5075805;28;1971;-37
2023/02/01 02:03:15;;;;;;;;;;;;;;;29.78;18.24;100629.31;5075996;28;1067;-36
2023/02/01 02:05:40;;;;;;;;;;;;;;;30.03;18.18;100626.03;5077468;28;1143;-34
2023/02/01 02:08:05;;;;;;;;;;;;;;;29.90;18.17;100626.00;5061938;28;1203;-36
2023/02/01 02:13:14;;;;;;;;;;;;;;;29.61;18.76;100638.84;5079383;28;1147;-39
2023/02/01 02:15:41;;;;;;;;;;;;;;;29.72;18.51;100626.56;5066634;28;1122;-39
2023/02/01 02:18:16;;;;;;;;;;;;;;;29.68;18.69;100621.56;5061368;28;1422;-37
2023/02/01 02:20:47;;;;;;;;;;;;;;;29.76;18.36;100631.38;5061259;28;1999;-38
2023/02/01 02:23:39;;;;;;;;;;;;;;;29.78;18.55;100634.72;5079224;28;1118;-34
2023/02/01 02:26:19;;;;;;;;;;;;;;;29.69;18.72;100631.38;5075565;28;1426;-40
2023/02/01 02:29:03;;;;;;;;;;;;;;;29.76;18.50;100627.84;5066945;28;1024;-36
2023/02/01 02:31:32;;;;;;;;;;;;;;;29.88;18.29;100623.50;5076642;28;1351;-33
2023/02/01 02:34:03;;;;;;;;;;;;;;;29.91;18.31;100627.69;5078784;28;1356;-36
2023/02/01 02:36:43;;;;;;;;;;;;;;;29.89;18.48;100622.47;5078830;28;1031;-35
2023/02/01 02:39:21;;;;;;;;;;;;;;;29.96;18.29;100625.19;5079205;28;1183;-39
2023/02/01 02:47:29;;;;;;;;;;;;;;;27.94;19.99;100622.81;5079132;28;1194;-36
2023/02/01 03:04:17;;;;;;;;;;;;;;;29.66;18.65;100612.78;5062694;28;1051;-37
2023/02/01 03:06:42;;;;;;;;;;;;;;;29.75;18.31;100616.16;5079389;28;1135;-34
2023/02/01 03:09:08;;;;;;;;;;;;;;;29.69;18.59;100620.53;5078414;28;1176;-34
2023/02/01 03:14:18;;;;;;;;;;;;;;;29.92;18.39;100623.91;5063560;28;953;-38
2023/02/01 03:16:46;;;;;;;;;;;;;;;29.85;18.44;100629.31;5059456;28;953;-38
2023/02/01 03:19:11;;;;;;;;;;;;;;;29.94;18.24;100635.41;5060776;28;1025;-36
2023/02/01 03:21:47;;;;;;;;;;;;;;;29.98;18.17;100633.94;5077966;28;1964;-38
2023/02/01 03:24:33;;;;;;;;;;;;;;;29.92;18.27;100627.47;5060855;28;1035;-37
2023/02/01 03:27:01;;;;;;;;;;;;;;;30.00;18.24;100626.44;5053108;28;1279;-39
2023/02/01 03:29:29;;;;;;;;;;;;;;;30.06;18.05;100628.31;5060513;28;1183;-35
2023/02/01 03:31:55;;;;;;;;;;;;;;;29.98;18.15;100636.66;5060439;28;1202;-38
2023/02/01 03:34:20;;;;;;;;;;;;;;;28.79;19.41;100635.66;5078139;28;1127;-37
2023/02/01 03:36:49;;;;;;;;;;;;;;;28.88;19.78;100625.50;5078289;28;1076;-37
2023/02/01 03:39:14;;;;;;;;;;;;;;;29.57;18.79;100631.09;5060031;28;1115;-35
2023/02/01 03:41:43;;;;;;;;;;;;;;;29.56;18.89;100642.16;5078007;28;1893;-35
2023/02/01 03:44:08;;;;;;;;;;;;;;;29.91;18.72;100635.81;5074998;28;1099;-37
2023/02/01 03:46:35;;;;;;;;;;;;;;;29.77;18.69;100633.06;5077955;28;1055;-37
2023/02/01 03:49:01;;;;;;;;;;;;;;;29.58;18.89;100645.47;5059750;28;1047;-36
2023/02/01 03:51:26;;;;;;;;;;;;;;;29.52;18.91;100647.13;5060361;28;1036;-35
2023/02/01 03:53:51;;;;;;;;;;;;;;;29.39;18.89;100647.06;5059369;28;1039;-34
2023/02/01 03:56:17;;;;;;;;;;;;;;;29.43;18.75;100653.75;5059744;28;1151;-36
2023/02/01 03:58:57;;;;;;;;;;;;;;;27.68;18.60;100667.38;5059443;28;1238;-34
2023/02/01 04:01:22;;;;;;;;;;;;;;;26.74;18.43;100665.81;5069424;28;3033;-34
2023/02/01 04:03:48;;;;;;;;;;;;;;;26.70;18.40;100666.38;5077252;28;1956;-35
2023/02/01 04:06:13;;;;;;;;;;;;;;;26.83;17.74;100665.75;5077159;28;2040;-32
2023/02/01 04:08:38;;;;;;;;;;;;;;;26.58;17.44;100665.97;5076413;28;1934;-34
2023/02/01 04:11:03;;;;;;;;;;;;;;;26.26;17.77;100655.22;5070578;28;1823;-32
2023/02/01 04:13:29;;;;;;;;;;;;;;;26.60;17.28;100661.25;5076579;28;2158;-36
2023/02/01 04:15:54;;;;;;;;;;;;;;;26.53;17.18;100666.53;5076388;28;2148;-37
2023/02/01 04:18:19;;;;;;;;;;;;;;;26.33;17.45;100677.78;5076683;28;1066;-34
2023/02/01 04:20:45;;;;;;;;;;;;;;;25.83;17.35;100674.50;5076684;28;1963;-32
2023/02/01 04:23:10;;;;;;;;;;;;;;;25.86;17.54;100679.59;5076341;28;1027;-31
2023/02/01 04:25:35;;;;;;;;;;;;;;;25.55;17.41;100678.50;5077130;28;1104;-30
2023/02/01 04:28:00;;;;;;;;;;;;;;;27.38;16.41;100679.91;5076049;28;1024;-26
2023/02/01 04:30:26;;;;;;;;;;;;;;;27.70;16.28;100682.41;5076659;28;1056;-26
2023/02/01 04:32:51;;;;;;;;;;;;;;;27.85;15.60;100686.97;5076076;28;1055;-26
2023/02/01 04:35:17;;;;;;;;;;;;;;;28.05;15.19;100681.78;5076784;28;1040;-25
2023/02/01 04:37:42;;;;;;;;;;;;;;;28.05;14.88;100689.91;5076729;28;1095;-27
2023/02/01 04:40:09;;;;;;;;;;;;;;;28.17;15.00;100697.50;5076512;28;1910;-27
2023/02/01 04:42:34;;;;;;;;;;;;;;;28.13;15.02;100698.94;5073570;28;1191;-25
2023/02/01 04:44:59;;;;;;;;;;;;;;;28.26;14.56;100703.63;5076039;28;2248;-26
2023/02/01 04:47:24;;;;;;;;;;;;;;;28.12;14.86;100695.38;5076198;28;980;-27
2023/02/01 04:49:50;;;;;;;;;;;;;;;28.22;14.49;100698.63;5076142;28;1126;-26
2023/02/01 04:52:15;;;;;;;;;;;;;;;28.17;14.40;100694.81;5074752;28;1005;-28
2023/02/01 04:54:40;;;;;;;;;;;;;;;28.17;15.03;100703.75;5076546;28;953;-28
2023/02/01 04:57:06;;;;;;;;;;;;;;;28.34;15.29;100703.53;5075633;28;1216;-26
2023/02/01 04:59:31;;;;;;;;;;;;;;;28.51;15.45;100711.41;5063075;28;1194;-27
2023/02/01 05:01:56;;;;;;;;;;;;;;;28.74;15.65;100716.63;5061817;28;1913;-27
2023/02/01 05:04:21;;;;;;;;;;;;;;;28.85;15.84;100710.66;5056185;28;1060;-26
2023/02/01 05:06:47;;;;;;;;;;;;;;;28.96;15.93;100720.13;5056461;28;969;-27
2023/02/01 05:09:12;;;;;;;;;;;;;;;29.07;16.09;100721.50;5069572;28;1119;-28
2023/02/01 05:14:21;;;;;;;;;;;;;;;29.05;16.22;100718.13;5056276;28;1067;-27
2023/02/01 05:16:46;;;;;;;;;;;;;;;29.15;16.57;100730.47;5069156;28;2122;-26
2023/02/01 05:19:12;;;;;;;;;;;;;;;29.21;16.70;100732.41;5056089;28;1079;-27
2023/02/01 05:21:37;;;;;;;;;;;;;;;29.37;16.56;100736.69;5066896;28;1960;-28
2023/02/01 05:24:20;;;;;;;;;;;;;;;29.29;16.67;100742.25;5067201;28;1106;-25
2023/02/01 05:26:45;;;;;;;;;;;;;;;29.51;16.57;100737.59;5075580;28;1166;-27
2023/02/01 05:29:11;;;;;;;;;;;;;;;29.61;16.45;100733.72;5076236;28;1086;-26
2023/02/01 05:31:36;;;;;;;;;;;;;;;29.64;16.68;100733.31;5058092;28;1078;-26
2023/02/01 05:34:01;;;;;;;;;;;;;;;29.65;16.83;100735.81;5066734;28;850;-27
2023/02/01 05:36:27;;;;;;;;;;;;;;;29.54;17.01;100736.38;5075588;28;965;-29
2023/02/01 05:38:52;;;;;;;;;;;;;;;29.39;17.01;100737.34;5075510;28;1051;-30
2023/02/01 05:41:17;;;;;;;;;;;;;;;29.56;16.86;100745.97;5064867;28;1971;-26
2023/02/01 05:43:43;;;;;;;;;;;;;;;29.57;17.03;100750.34;5071128;28;1522;-25
2023/02/01 05:46:10;;;;;;;;;;;;;;;29.56;17.37;100747.84;5075752;28;1947;-27
2023/02/01 05:48:35;;;;;;;;;;;;;;;29.72;17.13;100746.72;5080375;28;1034;-28
2023/02/01 05:51:01;;;;;;;;;;;;;;;29.76;16.95;100750.66;5076483;28;1107;-28
2023/02/01 05:53:26;;;;;;;;;;;;;;;29.80;16.87;100749.25;5069804;28;1036;-26
2023/02/01 05:55:51;;;;;;;;;;;;;;;29.74;16.82;100744.63;5076727;28;1016;-28
2023/02/01 05:58:17;;;;;;;;;;;;;;;29.05;17.64;100753.34;5069712;28;1281;-26
2023/02/01 06:00:42;;;;;;;;;;;;;;;26.97;19.81;100753.19;5066196;28;1980;-28
2023/02/01 06:03:07;;;;;;;;;;;;;;;26.83;20.40;100752.13;5070382;28;1047;-27
2023/02/01 06:05:32;;;;;;;;;;;;;;;28.82;18.36;100754.38;5073484;28;1427;-25
2023/02/01 06:07:58;;;;;;;;;;;;;;;27.52;19.89;100761.13;5060041;28;1016;-26
2023/02/01 06:10:23;;;;;;;;;;;;;;;27.10;20.15;100758.00;5066168;28;1127;-28
2023/02/01 06:12:48;;;;;;;;;;;;;;;28.57;18.79;100765.59;5079937;28;1135;-26
2023/02/01 06:15:17;;;;;;;;;;;;;;;28.93;18.55;100760.28;5066413;28;1040;-30
2023/02/01 06:17:45;;;;;;;;;;;;;;;28.97;18.25;100772.44;5070132;28;1198;-26
2023/02/01 06:20:10;;;;;;;;;;;;;;;29.16;17.83;100770.09;5072826;28;1910;-26
2023/02/01 06:22:36;;;;;;;;;;;;;;;29.23;18.15;100773.66;5069418;28;1012;-25
2023/02/01 06:25:02;;;;;;;;;;;;;;;27.72;19.49;100774.13;5079595;28;1147;-27
2023/02/01 06:27:28;;;;;;;;;;;;;;;26.78;20.83;100769.69;5079221;28;1028;-25
2023/02/01 06:29:54;;;;;;;;;;;;;;;28.56;19.36;100774.72;5075784;28;1056;-29
2023/02/01 06:32:20;;;;;;;;;;;;;;;28.97;18.75;100777.84;5063430;28;1135;-25
2023/02/01 06:34:45;;;;;;;;;;;;;;;26.87;20.89;100772.34;5059351;28;906;-27
2023/02/01 06:37:11;;;;;;;;;;;;;;;26.49;21.56;100765.84;5062051;28;1471;-27
2023/02/01 06:39:36;;;;;;;;;;;;;;;28.04;19.67;100771.22;5071517;28;1270;-29
2023/02/01 06:42:01;;;;;;;;;;;;;;;28.22;19.88;100778.91;5066224;28;1963;-27
2023/02/01 06:44:27;;;;;;;;;;;;;;;28.70;19.13;100782.97;5074607;28;1049;-28
2023/02/01 06:46:52;;;;;;;;;;;;;;;28.43;19.56;100763.75;5060421;28;915;-26
2023/02/01 06:49:19;;;;;;;;;;;;;;;28.68;19.08;100783.19;5067719;28;1219;-25
2023/02/01 06:51:44;;;;;;;;;;;;;;;28.67;19.24;100786.09;5078539;28;1228;-25
2023/02/01 06:54:10;;;;;;;;;;;;;;;28.53;19.44;100777.81;5074681;28;1183;-26
2023/02/01 06:56:35;;;;;;;;;;;;;;;28.78;19.15;100787.44;5078128;28;918;-29
2023/02/01 06:59:03;;;;;;;;;;;;;;;28.73;19.17;100779.88;5072082;28;1103;-25
2023/02/01 07:01:28;;;;;;;;;;;;;;;29.04;18.73;100792.31;5058765;28;1957;-26
2023/02/01 07:03:53;;;;;;;;;;;;;;;28.03;19.87;100789.28;5063986;28;1075;-26
2023/02/01 07:06:18;;;;;;;;;;;;;;;27.01;21.01;100793.16;5071542;28;1144;-28
2023/02/01 07:08:44;;;;;;;;;;;;;;;28.28;19.89;100778.16;5064623;28;1106;-32
2023/02/01 07:11:10;;;;;;;;;;;;;;;27.19;20.71;100789.31;5058666;28;857;-26
2023/02/01 07:13:35;;;;;;;;;;;;;;;26.55;21.05;100776.94;5070304;28;1183;-28
2023/02/01 07:16:01;;;;;;;;;;;;;;;27.93;20.10;100786.03;5078047;28;1059;-27
2023/02/01 07:18:27;;;;;;;;;;;;;;;28.78;19.39;100790.97;5070691;28;1090;-29
2023/02/01 07:20:52;;;;;;;;;;;;;;;29.06;18.79;100790.22;5076747;28;1894;-25
2023/02/01 07:23:19;;;;;;;;;;;;;;;28.80;18.99;100796.19;5072373;28;1054;-27
2023/02/01 07:25:44;;;;;;;;;;;;;;;27.06;21.16;100792.63;5074620;28;1032;-31
2023/02/01 07:28:09;;;;;;;;;;;;;;;27.43;20.64;100787.38;5058246;28;1113;-27
2023/02/01 07:30:34;;;;;;;;;;;;;;;28.78;19.28;100790.16;5070928;28;1117;-25
2023/02/01 07:33:00;;;;;;;;;;;;;;;29.09;18.84;100800.66;5068186;28;1223;-26
2023/02/01 07:35:26;;;;;;;;;;;;;;;28.92;18.81;100796.53;5066450;28;973;-26
2023/02/01 07:37:52;;;;;;;;;;;;;;;27.13;20.86;100790.88;5066240;28;1250;-28
2023/02/01 07:40:18;;;;;;;;;;;;;;;26.83;21.04;100787.19;5071305;28;1901;-26
2023/02/01 07:42:43;;;;;;;;;;;;;;;28.53;19.56;100807.59;5068599;28;1043;-26
2023/02/01 07:45:09;;;;;;;;;;;;;;;28.97;19.05;100813.06;5063213;28;1167;-28
2023/02/01 07:47:34;;;;;;;;;;;;;;;28.89;18.85;100810.44;5067335;28;1048;-26
2023/02/01 07:49:59;;;;;;;;;;;;;;;27.24;20.72;100803.09;5068242;28;1064;-25
2023/02/01 07:52:27;;;;;;;;;;;;;;;26.84;21.19;100805.09;5067840;28;1112;-26
2023/02/01 07:54:52;;;;;;;;;;;;;;;28.50;19.76;100812.53;5067452;28;1192;-25
2023/02/01 07:57:17;;;;;;;;;;;;;;;28.83;19.27;100806.63;5074126;28;1074;-31
2023/02/01 08:02:26;;;;;;;;;;;;;;;27.37;20.45;100812.44;5069905;28;1041;-30
2023/02/01 08:04:52;;;;;;;;;;;;;;;27.06;21.45;100808.00;5069161;28;1120;-31
2023/02/01 08:07:17;;;;;;;;;;;;;;;28.70;19.59;100810.06;5061560;28;1274;-28
2023/02/01 08:09:42;;;;;;;;;;;;;;;29.01;19.22;100806.22;5065202;28;1206;-28
2023/02/01 08:12:08;;;;;;;;;;;;;;;27.79;20.29;100814.75;5074261;28;976;-30
2023/02/01 08:14:33;;;;;;;;;;;;;;;27.06;20.97;100805.28;5070141;28;1277;-30
2023/02/01 08:16:58;;;;;;;;;;;;;;;27.74;20.89;100807.22;5060027;28;1223;-29
2023/02/01 08:19:23;;;;;;;;;;;;;;;28.65;19.78;100812.50;5066161;28;1172;-29
2023/02/01 08:21:49;;;;;;;;;;;;;;;28.94;19.43;100814.25;5072000;28;1963;-32
2023/02/01 08:24:14;;;;;;;;;;;;;;;27.92;20.16;100817.66;5062514;28;867;-29
2023/02/01 08:26:40;;;;;;;;;;;;;;;27.25;20.92;100815.59;5070341;28;1097;-30
2023/02/01 08:29:05;;;;;;;;;;;;;;;27.83;20.74;100813.34;5056922;28;1414;-32
2023/02/01 08:31:30;;;;;;;;;;;;;;;28.70;19.80;100810.06;5057839;28;1025;-29
2023/02/01 08:33:57;;;;;;;;;;;;;;;28.94;19.54;100806.13;5064179;28;1022;-31
2023/02/01 08:36:23;;;;;;;;;;;;;;;28.06;19.90;100810.53;5048780;28;1066;-29
2023/02/01 08:38:48;;;;;;;;;;;;;;;27.70;20.62;100820.25;5064449;28;1203;-30
2023/02/01 08:41:14;;;;;;;;;;;;;;;28.25;20.52;100821.81;5070656;28;1890;-33
2023/02/01 08:43:40;;;;;;;;;;;;;;;28.99;19.79;100829.97;5065108;28;1175;-32
2023/02/01 08:46:05;;;;;;;;;;;;;;;29.11;19.40;100822.16;5069210;28;1118;-29
2023/02/01 08:48:31;;;;;;;;;;;;;;;28.04;20.07;100826.13;5061978;28;961;-30
2023/02/01 08:50:56;;;;;;;;;;;;;;;27.38;21.13;100824.91;5073248;28;1074;-22
2023/02/01 08:53:22;;;;;;;;;;;;;;;27.96;20.76;100826.22;5060330;28;1088;-22
2023/02/01 08:55:47;;;;;;;;;;;;;;;28.82;19.73;100819.34;5058971;28;1003;-22
2023/02/01 08:58:13;;;;;;;;;;;;;;;29.00;19.80;100825.34;5066475;28;1143;-21
2023/02/01 09:00:39;;;;;;;;;;;;;;;28.17;20.13;100817.34;5070442;28;1905;-21
2023/02/01 09:03:05;;;;;;;;;;;;;;;27.38;21.09;100824.91;5064153;28;1290;-22
2023/02/01 09:05:30;;;;;;;;;;;;;;;27.80;21.21;100828.09;5062564;28;1255;-22
2023/02/01 09:07:55;;;;;;;;;;;;;;;28.83;19.95;100828.28;5065336;28;1258;-21
2023/02/01 09:10:20;;;;;;;;;;;;;;;28.77;19.97;100829.06;5056354;28;1091;-22
2023/02/01 09:12:46;;;;;;;;;;;;;;;28.76;19.85;100827.41;5062572;28;1176;-22
2023/02/01 09:15:11;;;;;;;;;;;;;;;27.22;21.49;100820.50;5069086;28;1242;-22
2023/02/01 09:17:36;;;;;;;;;;;;;;;27.56;21.60;100811.06;5065282;28;1251;-22
2023/02/01 09:20:02;;;;;;;;;;;;;;;28.58;20.33;100813.28;5057775;28;2038;-22
2023/02/01 09:22:27;;;;;;;;;;;;;;;28.85;19.90;100802.72;5059386;28;1105;-22
2023/02/01 09:24:53;;;;;;;;;;;;;;;27.94;20.24;100806.66;5070069;28;1242;-22
2023/02/01 09:27:18;;;;;;;;;;;;;;;27.30;21.51;100795.28;5065109;28;1132;-22
2023/02/01 09:29:43;;;;;;;;;;;;;;;28.09;20.79;100793.94;5064676;28;1358;-22
2023/02/01 09:32:09;;;;;;;;;;;;;;;28.90;19.87;100802.13;5042604;28;1083;-21
2023/02/01 09:34:34;;;;;;;;;;;;;;;28.98;19.52;100795.75;5067203;28;1116;-22
2023/02/01 09:36:59;;;;;;;;;;;;;;;27.60;20.92;100795.31;5067556;28;1199;-22
2023/02/01 09:39:25;;;;;;;;;;;;;;;27.01;21.53;100786.88;5064115;28;1060;-22
2023/02/01 09:41:50;;;;;;;;;;;;;;;28.88;19.95;100782.53;5075551;28;1898;-21
2023/02/01 09:44:18;;;;;;;;;;;;;;;29.07;19.74;100775.66;5074040;28;1235;-21
2023/02/01 09:46:43;;;;;;;;;;;;;;;27.92;20.61;100774.41;5074357;28;1235;-22
2023/02/01 09:49:12;;;;;;;;;;;;;;;27.42;21.06;100760.56;5056283;28;1228;-22
2023/02/01 09:51:38;;;;;;;;;;;;;;;28.48;20.30;100764.03;5075640;28;1334;-21
2023/02/01 09:54:05;;;;;;;;;;;;;;;28.98;19.60;100765.16;5057249;28;1251;-21
2023/02/01 09:56:35;;;;;;;;;;;;;;;28.48;19.79;100764.03;5075233;28;1219;-23
2023/02/01 09:59:00;;;;;;;;;;;;;;;27.35;21.21;100755.91;5056884;28;1235;-22
2023/02/01 10:01:26;;;;;;;;;;;;;;;27.94;20.78;100757.97;5075553;28;1985;-22
2023/02/01 10:03:51;;;;;;;;;;;;;;;28.61;19.66;100752.53;5074856;28;1266;-21
2023/02/01 10:06:49;;;;;;;;;;;;;;;28.77;19.64;100755.97;5057544;28;1152;-21
2023/02/01 10:09:15;;;;;;;;;;;;;;;27.82;20.50;100750.34;5022897;28;1240;-22
2023/02/01 10:11:49;;;;;;;;;;;;;;;27.24;21.34;100740.97;5068559;28;1044;-22
2023/02/01 10:14:23;;;;;;;;;;;;;;;28.38;20.21;100729.16;5061191;28;1149;-22
2023/02/01 10:17:01;;;;;;;;;;;;;;;28.75;19.76;100728.25;5061282;28;1072;-21
2023/02/01 10:19:26;;;;;;;;;;;;;;;28.80;19.85;100721.25;5062164;28;1145;-22
2023/02/01 10:21:57;;;;;;;;;;;;;;;27.82;21.02;100720.63;5065401;28;1898;-22
2023/02/01 10:24:37;;;;;;;;;;;;;;;27.50;21.33;100712.69;5064848;28;1192;-22
2023/02/01 10:27:12;;;;;;;;;;;;;;;28.92;20.07;100721.56;5060911;28;1297;-21
2023/02/01 10:29:38;;;;;;;;;;;;;;;29.05;19.70;100710.00;5070479;28;1044;-22
2023/02/01 10:32:08;;;;;;;;;;;;;;;27.88;21.16;100710.91;5072511;28;1124;-22
2023/02/01 10:34:33;;;;;;;;;;;;;;;27.59;21.26;100699.91;5061065;28;1020;-22
2023/02/01 10:37:19;;;;;;;;;;;;;;;28.97;19.94;100715.56;5047995;28;884;-22
2023/02/01 10:39:48;;;;;;;;;;;;;;;28.84;19.86;100711.69;5061913;28;1099;-22
2023/02/01 10:42:14;;;;;;;;;;;;;;;28.80;19.95;100710.41;5043885;28;1902;-21
2023/02/01 10:44:40;;;;;;;;;;;;;;;27.34;21.50;100700.19;5074940;28;1112;-22
2023/02/01 10:47:08;;;;;;;;;;;;;;;27.31;21.49;100705.16;5050554;28;1107;-22
2023/02/01 10:49:53;;;;;;;;;;;;;;;28.60;20.12;100694.84;5061237;28;1102;-21
2023/02/01 10:52:20;;;;;;;;;;;;;;;28.81;20.04;100695.84;5069151;28;1172;-22
2023/02/01 10:54:45;;;;;;;;;;;;;;;28.66;19.77;100695.91;5047905;28;1052;-22
2023/02/01 10:57:19;;;;;;;;;;;;;;;27.47;21.51;100691.47;5076181;28;1159;-22
2023/02/01 10:59:44;;;;;;;;;;;;;;;27.60;21.22;100692.66;5066698;28;1110;-22
2023/02/01 11:02:19;;;;;;;;;;;;;;;28.73;20.20;100694.13;5063022;28;1914;-21
2023/02/01 11:04:44;;;;;;;;;;;;;;;28.56;20.13;100696.25;5040236;28;1135;-23
2023/02/01 11:07:25;;;;;;;;;;;;;;;27.27;21.90;100677.66;5042224;28;1128;-22
2023/02/01 11:09:51;;;;;;;;;;;;;;;28.25;20.83;100700.09;5074517;28;1053;-22
2023/02/01 11:12:42;;;;;;;;;;;;;;;28.50;20.67;100688.06;5072472;28;1282;-22
2023/02/01 11:15:15;;;;;;;;;;;;;;;28.73;20.09;100679.72;5067678;28;1350;-21
2023/02/01 11:17:44;;;;;;;;;;;;;;;27.94;20.27;100676.88;5043146;28;1311;-21
2023/02/01 11:20:13;;;;;;;;;;;;;;;27.06;21.58;100681.91;5060122;28;2008;-22
2023/02/01 11:22:38;;;;;;;;;;;;;;;28.41;20.32;100674.66;5060770;28;1004;-21
2023/02/01 11:25:08;;;;;;;;;;;;;;;28.64;20.13;100673.66;5059091;28;1314;-21
2023/02/01 11:27:34;;;;;;;;;;;;;;;28.79;19.60;100670.00;5048456;28;1240;-22
2023/02/01 11:29:59;;;;;;;;;;;;;;;27.34;21.13;100656.97;5072990;28;1051;-22
2023/02/01 11:32:25;;;;;;;;;;;;;;;27.31;21.46;100657.34;5049560;28;1184;-21
2023/02/01 11:35:11;;;;;;;;;;;;;;;28.44;19.92;100652.66;5051237;28;933;-21
2023/02/01 11:37:37;;;;;;;;;;;;;;;28.76;19.98;100663.09;5054914;28;908;-22
2023/02/01 11:40:23;;;;;;;;;;;;;;;27.78;20.80;100645.50;5070196;28;1104;-22
2023/02/01 11:42:58;;;;;;;;;;;;;;;27.46;21.37;100649.25;5072417;28;1221;-22
2023/02/01 11:45:27;;;;;;;;;;;;;;;28.64;20.15;100652.00;5057121;28;1032;-22
2023/02/01 11:47:53;;;;;;;;;;;;;;;28.98;19.69;100649.53;5070857;28;1198;-22
2023/02/01 11:50:20;;;;;;;;;;;;;;;27.84;20.75;100642.03;5069501;28;1020;-21
2023/02/01 11:53:05;;;;;;;;;;;;;;;27.36;21.45;100643.31;5046268;28;1158;-22
2023/02/01 11:55:43;;;;;;;;;;;;;;;28.44;20.51;100649.97;5059093;28;1003;-21
2023/02/01 11:58:08;;;;;;;;;;;;;;;28.53;20.66;100647.13;5048249;28;1061;-21
2023/02/01 12:00:45;;;;;;;;;;;;;;;28.70;20.39;100643.09;5063285;28;1957;-22
2023/02/01 12:03:12;;;;;;;;;;;;;;;27.80;21.23;100646.13;5063556;28;1116;-22
2023/02/01 12:05:52;;;;;;;;;;;;;;;26.81;22.50;100641.66;5067913;28;1259;-22
2023/02/01 12:08:41;;;;;;;;;;;;;;;28.18;21.07;100642.38;5065754;28;1231;-21
2023/02/01 12:11:15;;;;;;;;;;;;;;;28.58;20.64;100644.63;5054706;28;1161;-22
2023/02/01 12:13:43;;;;;;;;;;;;;;;27.62;21.12;100645.50;5072985;28;1207;-21
2023/02/01 12:16:28;;;;;;;;;;;;;;;27.01;21.75;100639.28;5076480;28;1297;-22
2023/02/01 12:18:59;;;;;;;;;;;;;;;28.19;21.03;100642.22;5071093;28;1024;-21
2023/02/01 12:21:46;;;;;;;;;;;;;;;28.89;20.27;100638.00;5049443;28;1964;-22
2023/02/01 12:24:21;;;;;;;;;;;;;;;29.19;19.96;100628.84;5064119;28;1148;-22
2023/02/01 12:26:46;;;;;;;;;;;;;;;28.00;20.58;100622.03;5064652;28;1223;-22
2023/02/01 12:29:11;;;;;;;;;;;;;;;27.77;21.03;100625.75;5066513;28;1250;-21
2023/02/01 12:31:55;;;;;;;;;;;;;;;29.25;19.81;100630.75;5065683;28;1187;-21
2023/02/01 12:34:31;;;;;;;;;;;;;;;28.12;20.76;100633.19;5067313;28;1195;-21
2023/02/01 12:37:06;;;;;;;;;;;;;;;28.20;20.49;100626.81;5048345;28;1193;-21
2023/02/01 12:39:50;;;;;;;;;;;;;;;29.33;19.62;100630.56;5066006;28;1184;-22
2023/02/01 12:42:15;;;;;;;;;;;;;;;29.55;19.30;100635.03;5061987;28;1890;-21
2023/02/01 12:44:44;;;;;;;;;;;;;;;28.50;20.61;100623.97;5071416;28;1228;-23
2023/02/01 12:47:12;;;;;;;;;;;;;;;28.57;20.53;100630.28;5063780;28;1203;-21
2023/02/01 12:49:40;;;;;;;;;;;;;;;29.53;19.40;100629.81;5074301;28;1266;-19
2023/02/01 12:52:07;;;;;;;;;;;;;;;29.80;19.20;100631.81;5075874;28;1321;-19
2023/02/01 12:55:05;;;;;;;;;;;;;;;28.53;20.41;100614.66;5058050;28;1151;-20
2023/02/01 12:57:31;;;;;;;;;;;;;;;28.93;20.13;100622.19;5030655;28;1271;-19
2023/02/01 13:00:32;;;;;;;;;;;;;;;29.60;19.29;100627.16;5076026;28;1313;-20
2023/02/01 13:03:00;;;;;;;;;;;;;;;29.84;19.06;100616.81;4974664;28;1461;-20
2023/02/01 13:05:34;;;;;;;;;;;;;;;28.59;20.33;100619.25;5054387;28;1324;-19
2023/02/01 13:08:02;;;;;;;;;;;;;;;28.69;20.17;100619.78;5071818;28;1056;-20
2023/02/01 13:10:37;;;;;;;;;;;;;;;29.88;19.13;100609.13;5066374;28;1233;-20
2023/02/01 13:13:05;;;;;;;;;;;;;;;29.36;19.62;100606.84;5044980;28;1204;-20
2023/02/01 13:15:36;;;;;;;;;;;;;;;28.61;20.42;100609.09;5065400;28;1153;-20
2023/02/01 13:18:02;;;;;;;;;;;;;;;29.19;20.13;100602.59;5047614;28;1192;-20
2023/02/01 13:20:30;;;;;;;;;;;;;;;29.88;19.11;100609.94;5047428;28;1902;-20
2023/02/01 13:23:00;;;;;;;;;;;;;;;30.00;18.98;100603.91;5047044;28;1298;-20